V Centenario — EHXT — position and weather

sailwx.info

Track history (hours):
 
Tides and Currents Weather Stations Pressure Air Temp Water Temp Dewpoint Dewpoint Depression Visibility Wind Speed Wind Dir Waves Ship Positions

V Centenario

Last reported at 2017-Nov-11 07:35 UTC. Time now 2017-Nov-24 21:51 UTC.
Position N 30°12' W 012°20'.
Warning: this ship's position is 13 days out of date.

Length 84 m; draft 4.8 m.

Type: Cargo ship. MMSI: 224739000.

Date/timePositionNaut miles runAvg speedWind from/ knotsBaromVisibWave heightAir tempDewpointWater temp
2017-Nov-11 07:35N 30°12' W 012°20'75 6.3
2017-Nov-10 19:31N 29°10' W 013°09'0 5.6
2017-Nov-10 19:30N 29°10' W 013°09'14 7.2
2017-Nov-10 17:31N 28°60' W 013°21'0 7.9
2017-Nov-10 17:29N 28°60' W 013°21'4 7.4
2017-Nov-10 17:00N 28°57' W 013°24'4 7.3
2017-Nov-10 16:29N 28°54' W 013°26'4 7.6
2017-Nov-10 16:01N 28°51' W 013°28'4 7.6
2017-Nov-10 15:28N 28°47' W 013°30'4 7.6
2017-Nov-10 14:58N 28°44' W 013°32'79 7.7
2017-Nov-10 04:48N 27°35' W 014°14'  
Track history (hours):
 
Tides and Currents Weather Stations Pressure Air Temp Water Temp Dewpoint Dewpoint Depression Visibility Wind Speed Wind Dir Waves Ship Positions

V Centenario

Last reported at 2017-Nov-11 07:35 UTC. Time now 2017-Nov-24 21:51 UTC.
Position N 30°12' W 012°20'.
Warning: this ship's position is 13 days out of date.

Length 84 m; draft 4.8 m.

Type: Cargo ship. MMSI: 224739000.

Date/timePositionNaut miles runAvg speedWind from/ knotsBaromVisibWave heightAir tempDewpointWater temp
2017-Nov-11 07:35N 30°12' W 012°20'75 6.3
2017-Nov-10 19:31N 29°10' W 013°09'0 5.6
2017-Nov-10 19:30N 29°10' W 013°09'14 7.2
2017-Nov-10 17:31N 28°60' W 013°21'0 7.9
2017-Nov-10 17:29N 28°60' W 013°21'4 7.4
2017-Nov-10 17:00N 28°57' W 013°24'4 7.3
2017-Nov-10 16:29N 28°54' W 013°26'4 7.6
2017-Nov-10 16:01N 28°51' W 013°28'4 7.6
2017-Nov-10 15:28N 28°47' W 013°30'4 7.6
2017-Nov-10 14:58N 28°44' W 013°32'79 7.7
2017-Nov-10 04:48N 27°35' W 014°14'  

Dump ship's entire track history